sensor_id;sensor_type;location;lat;lon;timestamp;pressure;altitude;pressure_sealevel;temperature;humidity
74895;BME280;63447;49.446;8.666;2023-04-09T00:00:39;101213.94;;;9.56;57.46
74895;BME280;63447;49.446;8.666;2023-04-09T00:03:05;101209.03;;;9.52;58.07
74895;BME280;63447;49.446;8.666;2023-04-09T00:05:31;101194.97;;;9.54;56.75
74895;BME280;63447;49.446;8.666;2023-04-09T00:07:59;101210.06;;;9.70;56.13
74895;BME280;63447;49.446;8.666;2023-04-09T00:10:24;101202.72;;;9.66;57.17
74895;BME280;63447;49.446;8.666;2023-04-09T00:12:50;101198.03;;;9.66;57.41
74895;BME280;63447;49.446;8.666;2023-04-09T00:15:17;101201.59;;;9.67;59.02
74895;BME280;63447;49.446;8.666;2023-04-09T00:17:42;101200.91;;;9.61;58.35
74895;BME280;63447;49.446;8.666;2023-04-09T00:20:10;101207.09;;;9.67;58.93
74895;BME280;63447;49.446;8.666;2023-04-09T00:22:35;101209.66;;;9.63;59.23
74895;BME280;63447;49.446;8.666;2023-04-09T00:25:01;101211.59;;;9.63;59.88
74895;BME280;63447;49.446;8.666;2023-04-09T00:27:29;101203.75;;;9.56;59.72
74895;BME280;63447;49.446;8.666;2023-04-09T00:29:54;101202.31;;;9.59;59.74
74895;BME280;63447;49.446;8.666;2023-04-09T00:32:20;101199.97;;;9.52;60.00
74895;BME280;63447;49.446;8.666;2023-04-09T00:34:45;101187.69;;;9.44;59.45
74895;BME280;63447;49.446;8.666;2023-04-09T00:37:13;101204.34;;;9.53;59.84
74895;BME280;63447;49.446;8.666;2023-04-09T00:39:38;101190.03;;;9.37;59.72
74895;BME280;63447;49.446;8.666;2023-04-09T00:42:04;101187.56;;;9.36;60.39
74895;BME280;63447;49.446;8.666;2023-04-09T00:44:29;101192.91;;;9.46;60.05
74895;BME280;63447;49.446;8.666;2023-04-09T00:46:54;101186.50;;;9.50;60.03
74895;BME280;63447;49.446;8.666;2023-04-09T00:49:23;101189.63;;;9.44;60.24
74895;BME280;63447;49.446;8.666;2023-04-09T00:51:50;101187.69;;;9.44;60.34
74895;BME280;63447;49.446;8.666;2023-04-09T00:54:16;101187.56;;;9.36;60.14
74895;BME280;63447;49.446;8.666;2023-04-09T00:56:42;101207.41;;;9.51;60.16
74895;BME280;63447;49.446;8.666;2023-04-09T00:59:09;101190.66;;;9.48;60.36
74895;BME280;63447;49.446;8.666;2023-04-09T01:01:34;101204.88;;;9.55;59.99
74895;BME280;63447;49.446;8.666;2023-04-09T01:04:02;101198.19;;;9.42;61.02
74895;BME280;63447;49.446;8.666;2023-04-09T01:09:05;101199.22;;;9.46;60.67
74895;BME280;63447;49.446;8.666;2023-04-09T01:14:20;101200.75;;;9.39;58.96
74895;BME280;63447;49.446;8.666;2023-04-09T01:16:55;101202.91;;;9.42;60.55
74895;BME280;63447;49.446;8.666;2023-04-09T01:21:49;101192.69;;;9.29;61.10
74895;BME280;63447;49.446;8.666;2023-04-09T01:24:37;101191.97;;;9.37;61.28
74895;BME280;63447;49.446;8.666;2023-04-09T01:27:07;101193.00;;;9.27;61.93
74895;BME280;63447;49.446;8.666;2023-04-09T01:29:34;101185.19;;;9.15;61.34
74895;BME280;63447;49.446;8.666;2023-04-09T01:32:01;101196.66;;;9.23;62.24
74895;BME280;63447;49.446;8.666;2023-04-09T01:34:28;101162.25;;;9.06;61.34
74895;BME280;63447;49.446;8.666;2023-04-09T01:36:59;101185.13;;;9.21;60.91
74895;BME280;63447;49.446;8.666;2023-04-09T01:39:26;101183.19;;;9.21;60.72
74895;BME280;63447;49.446;8.666;2023-04-09T01:41:52;101173.59;;;9.18;61.37
74895;BME280;63447;49.446;8.666;2023-04-09T01:44:19;101164.72;;;9.08;61.06
74895;BME280;63447;49.446;8.666;2023-04-09T01:46:50;101187.25;;;9.24;60.75
74895;BME280;63447;49.446;8.666;2023-04-09T01:49:17;101188.91;;;9.25;60.01
74895;BME280;63447;49.446;8.666;2023-04-09T01:51:43;101187.06;;;9.20;60.43
74895;BME280;63447;49.446;8.666;2023-04-09T01:54:10;101183.81;;;9.32;59.67
74895;BME280;63447;49.446;8.666;2023-04-09T01:56:44;101187.56;;;9.36;59.74
74895;BME280;63447;49.446;8.666;2023-04-09T01:59:09;101187.09;;;9.34;59.01
74895;BME280;63447;49.446;8.666;2023-04-09T02:01:40;101181.47;;;9.25;60.05
74895;BME280;63447;49.446;8.666;2023-04-09T02:04:22;101182.38;;;9.21;60.27
74895;BME280;63447;49.446;8.666;2023-04-09T02:07:03;101185.72;;;9.17;60.42
74895;BME280;63447;49.446;8.666;2023-04-09T02:09:30;101198.44;;;9.13;60.83
74895;BME280;63447;49.446;8.666;2023-04-09T02:12:01;101195.69;;;9.13;61.86
74895;BME280;63447;49.446;8.666;2023-04-09T02:14:28;101192.25;;;9.08;63.21
74895;BME280;63447;49.446;8.666;2023-04-09T02:16:55;101194.34;;;8.97;63.28
74895;BME280;63447;49.446;8.666;2023-04-09T02:19:20;101192.97;;;8.81;63.17
74895;BME280;63447;49.446;8.666;2023-04-09T02:21:46;101197.66;;;8.80;64.28
74895;BME280;63447;49.446;8.666;2023-04-09T02:24:11;101208.22;;;8.73;63.88
74895;BME280;63447;49.446;8.666;2023-04-09T02:26:39;101200.34;;;8.67;63.63
74895;BME280;63447;49.446;8.666;2023-04-09T02:29:04;101202.13;;;8.58;63.87
74895;BME280;63447;49.446;8.666;2023-04-09T02:31:32;101194.69;;;8.39;64.70
74895;BME280;63447;49.446;8.666;2023-04-09T02:33:57;101208.44;;;8.39;64.95
74895;BME280;63447;49.446;8.666;2023-04-09T02:36:22;101191.44;;;8.13;65.91
74895;BME280;63447;49.446;8.666;2023-04-09T02:38:50;101199.34;;;8.20;64.65
74895;BME280;63447;49.446;8.666;2023-04-09T02:41:15;101200.25;;;8.34;64.62
74895;BME280;63447;49.446;8.666;2023-04-09T02:43:41;101185.47;;;8.30;63.65
74895;BME280;63447;49.446;8.666;2023-04-09T02:46:06;101196.59;;;8.20;65.65
74895;BME280;63447;49.446;8.666;2023-04-09T02:48:34;101196.13;;;8.32;64.39
74895;BME280;63447;49.446;8.666;2023-04-09T02:50:59;101199.44;;;8.34;65.26
74895;BME280;63447;49.446;8.666;2023-04-09T02:53:24;101194.16;;;8.37;65.03
74895;BME280;63447;49.446;8.666;2023-04-09T02:55:50;101207.84;;;8.42;65.02
74895;BME280;63447;49.446;8.666;2023-04-09T02:58:18;101200.13;;;8.44;65.07
74895;BME280;63447;49.446;8.666;2023-04-09T03:00:45;101197.06;;;8.46;64.49
74895;BME280;63447;49.446;8.666;2023-04-09T03:03:15;101194.16;;;8.37;64.62
74895;BME280;63447;49.446;8.666;2023-04-09T03:05:43;101192.44;;;8.60;64.71
74895;BME280;63447;49.446;8.666;2023-04-09T03:08:08;101191.13;;;8.39;65.09
74895;BME280;63447;49.446;8.666;2023-04-09T03:10:33;101187.25;;;8.40;64.89
74895;BME280;63447;49.446;8.666;2023-04-09T03:12:59;101193.13;;;8.33;65.24
74895;BME280;63447;49.446;8.666;2023-04-09T03:15:29;101188.28;;;8.25;65.02
74895;BME280;63447;49.446;8.666;2023-04-09T03:17:56;101193.13;;;8.33;66.30
74895;BME280;63447;49.446;8.666;2023-04-09T03:20:24;101185.41;;;8.35;65.31
74895;BME280;63447;49.446;8.666;2023-04-09T03:22:49;101183.63;;;8.44;65.84
74895;BME280;63447;49.446;8.666;2023-04-09T03:25:17;101186.31;;;8.49;66.47
74895;BME280;63447;49.446;8.666;2023-04-09T03:27:46;101175.44;;;8.39;65.93
74895;BME280;63447;49.446;8.666;2023-04-09T03:30:12;101180.94;;;8.39;66.60
74895;BME280;63447;49.446;8.666;2023-04-09T03:32:37;101182.56;;;8.40;66.30
74895;BME280;63447;49.446;8.666;2023-04-09T03:35:05;101176.25;;;8.40;67.08
74895;BME280;63447;49.446;8.666;2023-04-09T03:37:32;101173.34;;;8.31;66.52
74895;BME280;63447;49.446;8.666;2023-04-09T03:40:00;101180.56;;;8.27;66.12
74895;BME280;63447;49.446;8.666;2023-04-09T03:42:25;101184.59;;;8.35;66.87
74895;BME280;63447;49.446;8.666;2023-04-09T03:44:53;101187.97;;;8.27;67.88
74895;BME280;63447;49.446;8.666;2023-04-09T03:47:19;101187.41;;;8.30;67.54
74895;BME280;63447;49.446;8.666;2023-04-09T03:49:44;101182.66;;;8.35;67.29
74895;BME280;63447;49.446;8.666;2023-04-09T03:52:14;101186.94;;;8.23;67.87
74895;BME280;63447;49.446;8.666;2023-04-09T03:54:40;101182.19;;;8.28;67.81
74895;BME280;63447;49.446;8.666;2023-04-09T03:57:07;101176.63;;;8.33;67.67
74895;BME280;63447;49.446;8.666;2023-04-09T03:59:35;101179.22;;;8.25;67.61
74895;BME280;63447;49.446;8.666;2023-04-09T04:02:00;101186.88;;;8.28;68.29
74895;BME280;63447;49.446;8.666;2023-04-09T04:04:25;101178.09;;;8.26;67.83
74895;BME280;63447;49.446;8.666;2023-04-09T04:06:51;101171.97;;;8.10;67.09
74895;BME280;63447;49.446;8.666;2023-04-09T04:09:16;101189.16;;;8.21;67.81
74895;BME280;63447;49.446;8.666;2023-04-09T04:11:41;101187.81;;;8.18;67.18
74895;BME280;63447;49.446;8.666;2023-04-09T04:14:07;101185.97;;;8.13;68.11
74895;BME280;63447;49.446;8.666;2023-04-09T04:16:32;101184.03;;;8.14;68.14
74895;BME280;63447;49.446;8.666;2023-04-09T04:18:59;101180.75;;;8.12;68.27
74895;BME280;63447;49.446;8.666;2023-04-09T04:21:28;101184.03;;;8.14;67.73
74895;BME280;63447;49.446;8.666;2023-04-09T04:23:53;101179.06;;;8.16;68.33
74895;BME280;63447;49.446;8.666;2023-04-09T04:26:19;101186.72;;;8.19;67.80
74895;BME280;63447;49.446;8.666;2023-04-09T04:28:44;101175.47;;;8.15;67.87
74895;BME280;63447;49.446;8.666;2023-04-09T04:31:10;101182.91;;;8.15;67.65
74895;BME280;63447;49.446;8.666;2023-04-09T04:33:37;101187.06;;;8.12;67.69
74895;BME280;63447;49.446;8.666;2023-04-09T04:36:11;101186.00;;;8.08;68.00
74895;BME280;63447;49.446;8.666;2023-04-09T04:38:37;101188.25;;;8.06;68.90
74895;BME280;63447;49.446;8.666;2023-04-09T04:41:03;101197.31;;;8.07;68.51
74895;BME280;63447;49.446;8.666;2023-04-09T04:43:33;101191.81;;;8.07;67.81
74895;BME280;63447;49.446;8.666;2023-04-09T04:45:59;101185.81;;;8.05;68.42
74895;BME280;63447;49.446;8.666;2023-04-09T04:48:24;101194.78;;;8.10;68.02
74895;BME280;63447;49.446;8.666;2023-04-09T04:50:57;101194.78;;;8.10;68.60
74895;BME280;63447;49.446;8.666;2023-04-09T04:53:23;101191.38;;;8.00;67.96
74895;BME280;63447;49.446;8.666;2023-04-09T04:55:48;101194.72;;;7.97;68.09
74895;BME280;63447;49.446;8.666;2023-04-09T04:58:16;101196.06;;;7.99;67.36
74895;BME280;63447;49.446;8.666;2023-04-09T05:00:42;101197.44;;;7.97;68.78
74895;BME280;63447;49.446;8.666;2023-04-09T05:03:10;101190.84;;;7.98;68.77
74895;BME280;63447;49.446;8.666;2023-04-09T05:05:37;101203.47;;;7.99;68.76
74895;BME280;63447;49.446;8.666;2023-04-09T05:08:03;101183.00;;;7.86;68.94
74895;BME280;63447;49.446;8.666;2023-04-09T05:10:31;101206.56;;;7.92;68.72
74895;BME280;63447;49.446;8.666;2023-04-09T05:12:56;101186.50;;;7.73;69.07
74895;BME280;63447;49.446;8.666;2023-04-09T05:15:22;101195.41;;;7.83;68.91
74895;BME280;63447;49.446;8.666;2023-04-09T05:17:47;101209.63;;;7.67;70.15
74895;BME280;63447;49.446;8.666;2023-04-09T05:20:12;101204.19;;;7.62;69.88
74895;BME280;63447;49.446;8.666;2023-04-09T05:22:37;101199.94;;;7.74;69.85
74895;BME280;63447;49.446;8.666;2023-04-09T05:25:06;101202.00;;;7.82;69.64
74895;BME280;63447;49.446;8.666;2023-04-09T05:27:32;101184.78;;;7.77;69.25
74895;BME280;63447;49.446;8.666;2023-04-09T05:30:00;101202.97;;;7.73;69.68
74895;BME280;63447;49.446;8.666;2023-04-09T05:32:25;101194.72;;;7.73;70.15
74895;BME280;63447;49.446;8.666;2023-04-09T05:34:53;101208.31;;;7.83;68.91
74895;BME280;63447;49.446;8.666;2023-04-09T05:37:18;101202.53;;;7.84;70.28
74895;BME280;63447;49.446;8.666;2023-04-09T05:39:44;101203.13;;;7.81;70.07
74895;BME280;63447;49.446;8.666;2023-04-09T05:42:09;101191.78;;;7.64;69.54
74895;BME280;63447;49.446;8.666;2023-04-09T05:44:34;101193.63;;;7.74;70.33
74895;BME280;63447;49.446;8.666;2023-04-09T05:47:00;101200.66;;;7.80;69.99
74895;BME280;63447;49.446;8.666;2023-04-09T05:49:30;101205.47;;;7.93;69.66
74895;BME280;63447;49.446;8.666;2023-04-09T05:51:55;101209.84;;;7.94;69.63
74895;BME280;63447;49.446;8.666;2023-04-09T05:54:23;101210.31;;;8.01;69.48
74895;BME280;63447;49.446;8.666;2023-04-09T05:56:48;101216.19;;;8.13;69.03
74895;BME280;63447;49.446;8.666;2023-04-09T05:59:14;101213.66;;;8.17;68.49
74895;BME280;63447;49.446;8.666;2023-04-09T06:01:39;101212.78;;;8.22;69.45
74895;BME280;63447;49.446;8.666;2023-04-09T06:04:04;101215.94;;;8.34;68.25
74895;BME280;63447;49.446;8.666;2023-04-09T06:06:32;101194.00;;;8.29;69.33
74895;BME280;63447;49.446;8.666;2023-04-09T06:09:00;101220.94;;;8.50;67.93
74895;BME280;63447;49.446;8.666;2023-04-09T06:11:29;101213.22;;;8.53;68.63
74895;BME280;63447;49.446;8.666;2023-04-09T06:13:56;101223.00;;;8.59;68.47
74895;BME280;63447;49.446;8.666;2023-04-09T06:16:22;101223.00;;;8.59;68.73
74895;BME280;63447;49.446;8.666;2023-04-09T06:18:47;101228.72;;;8.62;67.85
74895;BME280;63447;49.446;8.666;2023-04-09T06:21:20;101229.19;;;8.69;67.85
74895;BME280;63447;49.446;8.666;2023-04-09T06:23:45;101220.78;;;8.79;68.88
74895;BME280;63447;49.446;8.666;2023-04-09T06:26:11;101226.94;;;8.90;68.45
74895;BME280;63447;49.446;8.666;2023-04-09T06:28:36;101230.13;;;8.97;67.82
74895;BME280;63447;49.446;8.666;2023-04-09T06:31:04;101205.06;;;8.99;67.18
74895;BME280;63447;49.446;8.666;2023-04-09T06:33:29;101233.22;;;9.09;67.61
74895;BME280;63447;49.446;8.666;2023-04-09T06:35:55;101234.25;;;9.13;67.65
74895;BME280;63447;49.446;8.666;2023-04-09T06:38:20;101224.03;;;9.14;68.15
74895;BME280;63447;49.446;8.666;2023-04-09T06:40:48;101223.53;;;8.79;69.22
74895;BME280;63447;49.446;8.666;2023-04-09T06:43:18;101229.59;;;8.95;68.65
74895;BME280;63447;49.446;8.666;2023-04-09T06:45:43;101238.41;;;9.11;67.30
74895;BME280;63447;49.446;8.666;2023-04-09T06:48:11;101240.25;;;9.15;66.42
74895;BME280;63447;49.446;8.666;2023-04-09T06:50:36;101226.41;;;9.21;66.83
74895;BME280;63447;49.446;8.666;2023-04-09T06:53:05;101227.88;;;9.32;66.96
74895;BME280;63447;49.446;8.666;2023-04-09T06:55:33;101239.44;;;9.47;66.43
74895;BME280;63447;49.446;8.666;2023-04-09T06:57:58;101237.63;;;9.57;65.97
74895;BME280;63447;49.446;8.666;2023-04-09T07:00:26;101242.22;;;9.61;65.69
74895;BME280;63447;49.446;8.666;2023-04-09T07:02:54;101233.44;;;9.73;65.68
74895;BME280;63447;49.446;8.666;2023-04-09T07:05:22;101239.06;;;9.81;65.88
74895;BME280;63447;49.446;8.666;2023-04-09T07:07:48;101239.78;;;9.87;65.49
74895;BME280;63447;49.446;8.666;2023-04-09T07:10:13;101241.81;;;9.95;64.62
74895;BME280;63447;49.446;8.666;2023-04-09T07:12:39;101239.88;;;10.09;65.08
74895;BME280;63447;49.446;8.666;2023-04-09T07:15:05;101231.41;;;10.19;64.76
74895;BME280;63447;49.446;8.666;2023-04-09T07:17:32;101236.72;;;10.30;63.87
74895;BME280;63447;49.446;8.666;2023-04-09T07:19:57;101238.25;;;10.36;64.92
74895;BME280;63447;49.446;8.666;2023-04-09T07:22:24;101239.13;;;10.45;63.62
74895;BME280;63447;49.446;8.666;2023-04-09T07:24:50;101234.94;;;10.47;63.11
74895;BME280;63447;49.446;8.666;2023-04-09T07:27:23;101230.13;;;10.53;62.64
74895;BME280;63447;49.446;8.666;2023-04-09T07:29:54;101239.16;;;10.67;62.58
74895;BME280;63447;49.446;8.666;2023-04-09T07:32:20;101236.06;;;10.82;62.75
74895;BME280;63447;49.446;8.666;2023-04-09T07:34:45;101225.22;;;10.86;63.02
74895;BME280;63447;49.446;8.666;2023-04-09T07:37:10;101229.31;;;10.88;62.93
74895;BME280;63447;49.446;8.666;2023-04-09T07:39:36;101243.66;;;11.21;60.60
74895;BME280;63447;49.446;8.666;2023-04-09T07:42:03;101244.41;;;11.36;59.65
74895;BME280;63447;49.446;8.666;2023-04-09T07:44:32;101236.88;;;11.28;56.98
74895;BME280;63447;49.446;8.666;2023-04-09T07:47:06;101243.34;;;11.23;58.51
74895;BME280;63447;49.446;8.666;2023-04-09T07:49:32;101238.28;;;11.16;57.00
74895;BME280;63447;49.446;8.666;2023-04-09T07:52:03;101247.56;;;11.51;56.35
74895;BME280;63447;49.446;8.666;2023-04-09T07:54:29;101247.63;;;11.60;55.94
74895;BME280;63447;49.446;8.666;2023-04-09T07:57:00;101237.03;;;11.84;55.47
74895;BME280;63447;49.446;8.666;2023-04-09T07:59:26;101243.63;;;11.75;53.54
74895;BME280;63447;49.446;8.666;2023-04-09T08:01:55;101243.69;;;11.52;54.82
74895;BME280;63447;49.446;8.666;2023-04-09T08:04:23;101252.47;;;11.54;54.01
74895;BME280;63447;49.446;8.666;2023-04-09T08:06:51;101255.78;;;11.65;53.93
74895;BME280;63447;49.446;8.666;2023-04-09T08:09:19;101257.03;;;11.81;54.12
74895;BME280;63447;49.446;8.666;2023-04-09T08:11:46;101257.72;;;11.87;53.49
74895;BME280;63447;49.446;8.666;2023-04-09T08:14:12;101257.59;;;12.01;53.82
74895;BME280;63447;49.446;8.666;2023-04-09T08:16:39;101249.28;;;12.01;53.70
74895;BME280;63447;49.446;8.666;2023-04-09T08:19:05;101257.00;;;12.12;53.71
74895;BME280;63447;49.446;8.666;2023-04-09T08:21:33;101247.97;;;11.89;53.70
74895;BME280;63447;49.446;8.666;2023-04-09T08:24:01;101259.84;;;11.99;53.67
74895;BME280;63447;49.446;8.666;2023-04-09T08:26:29;101256.28;;;12.46;53.49
74895;BME280;63447;49.446;8.666;2023-04-09T08:28:55;101243.88;;;12.52;52.69
74895;BME280;63447;49.446;8.666;2023-04-09T08:31:24;101265.91;;;12.66;53.50
74895;BME280;63447;49.446;8.666;2023-04-09T08:33:50;101258.72;;;12.82;54.15
74895;BME280;63447;49.446;8.666;2023-04-09T08:36:17;101258.19;;;12.37;54.30
74895;BME280;63447;49.446;8.666;2023-04-09T08:38:45;101261.84;;;12.72;53.96
74895;BME280;63447;49.446;8.666;2023-04-09T08:41:22;101260.53;;;12.87;52.54
74895;BME280;63447;49.446;8.666;2023-04-09T08:43:53;101258.91;;;13.20;52.95
74895;BME280;63447;49.446;8.666;2023-04-09T08:46:24;101256.75;;;13.35;51.48
74895;BME280;63447;49.446;8.666;2023-04-09T08:48:52;101261.31;;;13.39;51.07
74895;BME280;63447;49.446;8.666;2023-04-09T08:51:20;101247.31;;;13.36;49.49
74895;BME280;63447;49.446;8.666;2023-04-09T08:53:54;101263.06;;;13.52;48.43
74895;BME280;63447;49.446;8.666;2023-04-09T08:56:20;101262.31;;;13.35;50.00
74895;BME280;63447;49.446;8.666;2023-04-09T08:58:49;101269.22;;;13.75;49.14
74895;BME280;63447;49.446;8.666;2023-04-09T09:01:22;101264.94;;;13.86;48.01
74895;BME280;63447;49.446;8.666;2023-04-09T09:06:25;101262.22;;;13.69;46.25
74895;BME280;63447;49.446;8.666;2023-04-09T09:09:01;101258.78;;;13.72;47.80
74895;BME280;63447;49.446;8.666;2023-04-09T09:11:27;101264.59;;;14.26;48.74
74895;BME280;63447;49.446;8.666;2023-04-09T09:14:06;101260.13;;;14.04;47.99
74895;BME280;63447;49.446;8.666;2023-04-09T09:16:35;101261.13;;;14.58;47.77
74895;BME280;63447;49.446;8.666;2023-04-09T09:19:04;101259.06;;;14.76;44.52
74895;BME280;63447;49.446;8.666;2023-04-09T09:21:34;101271.94;;;14.81;43.69
74895;BME280;63447;49.446;8.666;2023-04-09T09:24:03;101270.16;;;15.18;44.74
74895;BME280;63447;49.446;8.666;2023-04-09T09:26:40;101259.31;;;15.37;40.64
74895;BME280;63447;49.446;8.666;2023-04-09T09:29:05;101258.72;;;14.99;44.54
74895;BME280;63447;49.446;8.666;2023-04-09T09:31:44;101255.16;;;15.31;43.43
74895;BME280;63447;49.446;8.666;2023-04-09T09:34:11;101258.63;;;15.73;43.84
74895;BME280;63447;49.446;8.666;2023-04-09T09:36:36;101248.81;;;16.12;43.76
74895;BME280;63447;49.446;8.666;2023-04-09T09:39:02;101253.19;;;16.38;40.19
74895;BME280;63447;49.446;8.666;2023-04-09T09:41:29;101252.03;;;15.90;42.76
74895;BME280;63447;49.446;8.666;2023-04-09T09:43:55;101254.72;;;16.35;42.24
74895;BME280;63447;49.446;8.666;2023-04-09T09:46:21;101257.28;;;16.28;39.11
74895;BME280;63447;49.446;8.666;2023-04-09T09:48:46;101258.16;;;16.69;41.53
74895;BME280;63447;49.446;8.666;2023-04-09T09:51:14;101249.81;;;15.59;43.31
74895;BME280;63447;49.446;8.666;2023-04-09T09:53:42;101263.31;;;15.81;40.68
74895;BME280;63447;49.446;8.666;2023-04-09T09:56:14;101265.16;;;15.77;37.17
74895;BME280;63447;49.446;8.666;2023-04-09T09:58:47;101253.22;;;16.25;38.14
74895;BME280;63447;49.446;8.666;2023-04-09T10:01:21;101258.06;;;15.80;35.46
74895;BME280;63447;49.446;8.666;2023-04-09T10:03:55;101253.28;;;15.35;36.64
74895;BME280;63447;49.446;8.666;2023-04-09T10:06:22;101259.34;;;13.95;39.14
74895;BME280;63447;49.446;8.666;2023-04-09T10:08:48;101237.44;;;13.64;39.87
74895;BME280;63447;49.446;8.666;2023-04-09T10:11:15;101245.31;;;14.00;41.05
74895;BME280;63447;49.446;8.666;2023-04-09T10:13:46;101252.19;;;14.23;40.25
74895;BME280;63447;49.446;8.666;2023-04-09T10:16:16;101250.97;;;14.33;40.71
74895;BME280;63447;49.446;8.666;2023-04-09T10:18:43;101238.38;;;14.65;38.85
74895;BME280;63447;49.446;8.666;2023-04-09T10:21:21;101242.84;;;14.99;36.50
74895;BME280;63447;49.446;8.666;2023-04-09T10:23:52;101243.22;;;14.77;37.38
74895;BME280;63447;49.446;8.666;2023-04-09T10:26:20;101248.50;;;14.70;36.84
74895;BME280;63447;49.446;8.666;2023-04-09T10:29:27;101245.06;;;15.26;36.48
74895;BME280;63447;49.446;8.666;2023-04-09T10:32:02;101244.97;;;15.80;37.27
74895;BME280;63447;49.446;8.666;2023-04-09T10:34:34;101232.84;;;15.52;35.06
74895;BME280;63447;49.446;8.666;2023-04-09T10:37:00;101219.03;;;15.43;35.65
74895;BME280;63447;49.446;8.666;2023-04-09T10:39:26;101236.00;;;15.63;35.10
74895;BME280;63447;49.446;8.666;2023-04-09T10:41:53;101231.25;;;14.97;35.33
74895;BME280;63447;49.446;8.666;2023-04-09T10:44:25;101236.16;;;14.79;35.48
74895;BME280;63447;49.446;8.666;2023-04-09T10:46:52;101228.28;;;15.02;36.53
74895;BME280;63447;49.446;8.666;2023-04-09T10:49:19;101231.16;;;15.39;36.04
74895;BME280;63447;49.446;8.666;2023-04-09T10:52:08;101214.91;;;14.04;36.40
74895;BME280;63447;49.446;8.666;2023-04-09T10:54:42;101218.25;;;13.88;37.29
74895;BME280;63447;49.446;8.666;2023-04-09T10:57:18;101222.38;;;14.41;37.25
74895;BME280;63447;49.446;8.666;2023-04-09T11:07:48;101210.69;;;15.10;35.19
74895;BME280;63447;49.446;8.666;2023-04-09T11:10:16;101222.72;;;14.10;36.25
74895;BME280;63447;49.446;8.666;2023-04-09T11:12:41;101221.53;;;13.82;37.38
74895;BME280;63447;49.446;8.666;2023-04-09T11:15:15;101200.81;;;13.50;37.89
74895;BME280;63447;49.446;8.666;2023-04-09T11:17:44;101221.16;;;13.54;38.23
74895;BME280;63447;49.446;8.666;2023-04-09T11:20:12;101207.25;;;13.71;37.96
74895;BME280;63447;49.446;8.666;2023-04-09T11:22:40;101213.00;;;13.96;37.71
74895;BME280;63447;49.446;8.666;2023-04-09T11:25:06;101203.91;;;13.86;37.55
74895;BME280;63447;49.446;8.666;2023-04-09T11:27:38;101214.09;;;13.74;38.13
74895;BME280;63447;49.446;8.666;2023-04-09T11:30:04;101219.06;;;13.89;38.45
74895;BME280;63447;49.446;8.666;2023-04-09T11:32:32;101207.38;;;14.34;37.23
74895;BME280;63447;49.446;8.666;2023-04-09T11:34:58;101212.66;;;14.77;35.47
74895;BME280;63447;49.446;8.666;2023-04-09T11:37:23;101206.16;;;14.22;36.18
74895;BME280;63447;49.446;8.666;2023-04-09T11:39:54;101205.41;;;14.34;35.66
74895;BME280;63447;49.446;8.666;2023-04-09T11:42:21;101207.97;;;14.48;34.80
74895;BME280;63447;49.446;8.666;2023-04-09T11:44:47;101208.38;;;14.58;35.71
74895;BME280;63447;49.446;8.666;2023-04-09T11:47:13;101209.03;;;14.97;35.95
74895;BME280;63447;49.446;8.666;2023-04-09T11:49:41;101202.06;;;16.18;34.16
74895;BME280;63447;49.446;8.666;2023-04-09T11:52:06;101212.88;;;15.83;32.99
74895;BME280;63447;49.446;8.666;2023-04-09T11:54:32;101212.56;;;15.51;33.24
74895;BME280;63447;49.446;8.666;2023-04-09T11:57:04;101208.66;;;15.19;33.67
74895;BME280;63447;49.446;8.666;2023-04-09T11:59:29;101199.06;;;15.29;33.49
74895;BME280;63447;49.446;8.666;2023-04-09T12:02:00;101203.81;;;15.28;34.11
74895;BME280;63447;49.446;8.666;2023-04-09T12:04:28;101197.94;;;14.55;34.00
74895;BME280;63447;49.446;8.666;2023-04-09T12:06:57;101204.38;;;14.68;34.69
74895;BME280;63447;49.446;8.666;2023-04-09T12:09:25;101194.28;;;15.17;33.67
74895;BME280;63447;49.446;8.666;2023-04-09T12:11:50;101193.22;;;15.55;32.38
74895;BME280;63447;49.446;8.666;2023-04-09T12:14:20;101197.19;;;15.66;31.91
74895;BME280;63447;49.446;8.666;2023-04-09T12:16:53;101194.28;;;16.23;31.74
74895;BME280;63447;49.446;8.666;2023-04-09T12:19:19;101191.88;;;15.98;32.17
74895;BME280;63447;49.446;8.666;2023-04-09T12:24:13;101202.13;;;15.15;32.61
74895;BME280;63447;49.446;8.666;2023-04-09T12:26:41;101208.28;;;15.54;32.17
74895;BME280;63447;49.446;8.666;2023-04-09T12:29:09;101201.25;;;15.56;33.00
74895;BME280;63447;49.446;8.666;2023-04-09T12:31:34;101187.69;;;15.67;33.17
74895;BME280;63447;49.446;8.666;2023-04-09T12:34:00;101183.16;;;15.87;33.10
74895;BME280;63447;49.446;8.666;2023-04-09T12:36:28;101178.75;;;16.10;32.25
74895;BME280;63447;49.446;8.666;2023-04-09T12:38:53;101184.03;;;16.40;31.89
74895;BME280;63447;49.446;8.666;2023-04-09T12:41:20;101173.47;;;16.45;30.28
74895;BME280;63447;49.446;8.666;2023-04-09T12:43:45;101175.25;;;16.13;30.91
74895;BME280;63447;49.446;8.666;2023-04-09T12:46:14;101173.34;;;16.42;30.42
74895;BME280;63447;49.446;8.666;2023-04-09T12:48:44;101177.22;;;17.65;28.98
74895;BME280;63447;49.446;8.666;2023-04-09T12:51:10;101180.22;;;16.32;30.27
74895;BME280;63447;49.446;8.666;2023-04-09T12:53:36;101158.81;;;16.48;31.02
74895;BME280;63447;49.446;8.666;2023-04-09T12:56:01;101168.56;;;17.70;30.08
74895;BME280;63447;49.446;8.666;2023-04-09T12:58:30;101168.81;;;16.37;30.31
74895;BME280;63447;49.446;8.666;2023-04-09T13:00:55;101160.34;;;15.81;31.65
74895;BME280;63447;49.446;8.666;2023-04-09T13:03:22;101157.53;;;15.93;32.48
74895;BME280;63447;49.446;8.666;2023-04-09T13:05:51;101150.81;;;15.94;31.38
74895;BME280;63447;49.446;8.666;2023-04-09T13:08:17;101159.94;;;16.32;30.45
74895;BME280;63447;49.446;8.666;2023-04-09T13:10:43;101140.69;;;15.29;31.12
74895;BME280;63447;49.446;8.666;2023-04-09T13:13:08;101146.63;;;15.88;31.06
74895;BME280;63447;49.446;8.666;2023-04-09T13:15:39;101152.31;;;16.04;30.52
74895;BME280;63447;49.446;8.666;2023-04-09T13:18:10;101131.78;;;15.97;29.96